sensor_id;sensor_type;location;lat;lon;timestamp;P1;durP1;ratioP1;P2;durP2;ratioP2
15120;SDS011;7661;48.904;9.414;2023-06-05T00:00:29;1.30;;;0.50;;
15120;SDS011;7661;48.904;9.414;2023-06-05T00:02:56;1.40;;;0.50;;
15120;SDS011;7661;48.904;9.414;2023-06-05T00:05:24;1.40;;;0.50;;
15120;SDS011;7661;48.904;9.414;2023-06-05T00:07:54;1.30;;;0.50;;
15120;SDS011;7661;48.904;9.414;2023-06-05T00:10:20;1.37;;;0.50;;
15120;SDS011;7661;48.904;9.414;2023-06-05T00:12:48;1.30;;;0.50;;
15120;SDS011;7661;48.904;9.414;2023-06-05T00:15:14;1.40;;;0.50;;
15120;SDS011;7661;48.904;9.414;2023-06-05T00:17:42;1.40;;;0.50;;
15120;SDS011;7661;48.904;9.414;2023-06-05T00:20:10;1.37;;;0.60;;
15120;SDS011;7661;48.904;9.414;2023-06-05T00:22:37;1.40;;;0.50;;
15120;SDS011;7661;48.904;9.414;2023-06-05T00:25:07;1.33;;;0.50;;
15120;SDS011;7661;48.904;9.414;2023-06-05T00:27:34;1.40;;;0.50;;
15120;SDS011;7661;48.904;9.414;2023-06-05T00:30:01;1.40;;;0.50;;
15120;SDS011;7661;48.904;9.414;2023-06-05T00:32:28;1.40;;;0.50;;
15120;SDS011;7661;48.904;9.414;2023-06-05T00:34:55;1.40;;;0.60;;
15120;SDS011;7661;48.904;9.414;2023-06-05T00:37:21;1.30;;;0.50;;
15120;SDS011;7661;48.904;9.414;2023-06-05T00:39:50;1.37;;;0.50;;
15120;SDS011;7661;48.904;9.414;2023-06-05T00:42:18;1.30;;;0.50;;
15120;SDS011;7661;48.904;9.414;2023-06-05T00:44:45;1.40;;;0.60;;
15120;SDS011;7661;48.904;9.414;2023-06-05T00:47:13;1.50;;;0.60;;
15120;SDS011;7661;48.904;9.414;2023-06-05T00:49:41;1.40;;;0.60;;
15120;SDS011;7661;48.904;9.414;2023-06-05T00:52:08;1.30;;;0.50;;
15120;SDS011;7661;48.904;9.414;2023-06-05T00:54:35;1.40;;;0.60;;
15120;SDS011;7661;48.904;9.414;2023-06-05T00:57:02;1.40;;;0.60;;
15120;SDS011;7661;48.904;9.414;2023-06-05T00:59:31;1.40;;;0.50;;
15120;SDS011;7661;48.904;9.414;2023-06-05T01:01:59;1.33;;;0.50;;
15120;SDS011;7661;48.904;9.414;2023-06-05T01:04:27;1.40;;;0.50;;
15120;SDS011;7661;48.904;9.414;2023-06-05T01:06:55;1.40;;;0.60;;
15120;SDS011;7661;48.904;9.414;2023-06-05T01:09:22;1.30;;;0.50;;
15120;SDS011;7661;48.904;9.414;2023-06-05T01:11:50;1.40;;;0.60;;
15120;SDS011;7661;48.904;9.414;2023-06-05T01:14:22;1.40;;;0.60;;
15120;SDS011;7661;48.904;9.414;2023-06-05T01:16:54;1.40;;;0.50;;
15120;SDS011;7661;48.904;9.414;2023-06-05T01:19:25;1.40;;;0.60;;
15120;SDS011;7661;48.904;9.414;2023-06-05T01:21:53;1.30;;;0.50;;
15120;SDS011;7661;48.904;9.414;2023-06-05T01:24:22;1.37;;;0.60;;
15120;SDS011;7661;48.904;9.414;2023-06-05T01:26:53;1.40;;;0.60;;
15120;SDS011;7661;48.904;9.414;2023-06-05T01:29:29;1.40;;;0.50;;
15120;SDS011;7661;48.904;9.414;2023-06-05T01:32:02;1.40;;;0.50;;
15120;SDS011;7661;48.904;9.414;2023-06-05T01:34:33;1.40;;;0.50;;
15120;SDS011;7661;48.904;9.414;2023-06-05T01:37:03;1.40;;;0.50;;
15120;SDS011;7661;48.904;9.414;2023-06-05T01:39:34;1.37;;;0.60;;
15120;SDS011;7661;48.904;9.414;2023-06-05T01:42:03;1.40;;;0.50;;
15120;SDS011;7661;48.904;9.414;2023-06-05T01:44:30;1.40;;;0.60;;
15120;SDS011;7661;48.904;9.414;2023-06-05T01:46:58;1.40;;;0.60;;
15120;SDS011;7661;48.904;9.414;2023-06-05T01:49:25;1.30;;;0.50;;
15120;SDS011;7661;48.904;9.414;2023-06-05T01:51:52;1.37;;;0.50;;
15120;SDS011;7661;48.904;9.414;2023-06-05T01:54:20;1.40;;;0.60;;
15120;SDS011;7661;48.904;9.414;2023-06-05T01:56:50;1.30;;;0.50;;
15120;SDS011;7661;48.904;9.414;2023-06-05T01:59:18;1.40;;;0.50;;
15120;SDS011;7661;48.904;9.414;2023-06-05T02:01:44;1.37;;;0.50;;
15120;SDS011;7661;48.904;9.414;2023-06-05T02:04:11;1.40;;;0.60;;
15120;SDS011;7661;48.904;9.414;2023-06-05T02:06:41;1.40;;;0.60;;
15120;SDS011;7661;48.904;9.414;2023-06-05T02:09:09;1.40;;;0.50;;
15120;SDS011;7661;48.904;9.414;2023-06-05T02:11:36;1.40;;;0.50;;
15120;SDS011;7661;48.904;9.414;2023-06-05T02:14:05;1.40;;;0.50;;
15120;SDS011;7661;48.904;9.414;2023-06-05T02:16:32;1.40;;;0.57;;
15120;SDS011;7661;48.904;9.414;2023-06-05T02:19:01;1.40;;;0.50;;
15120;SDS011;7661;48.904;9.414;2023-06-05T02:21:30;1.40;;;0.50;;
15120;SDS011;7661;48.904;9.414;2023-06-05T02:23:58;1.40;;;0.50;;
15120;SDS011;7661;48.904;9.414;2023-06-05T02:26:25;1.40;;;0.60;;
15120;SDS011;7661;48.904;9.414;2023-06-05T02:28:52;1.40;;;0.50;;
15120;SDS011;7661;48.904;9.414;2023-06-05T02:31:22;1.40;;;0.57;;
15120;SDS011;7661;48.904;9.414;2023-06-05T02:33:50;1.40;;;0.57;;
15120;SDS011;7661;48.904;9.414;2023-06-05T02:36:18;1.40;;;0.50;;
15120;SDS011;7661;48.904;9.414;2023-06-05T02:38:45;1.33;;;0.50;;
15120;SDS011;7661;48.904;9.414;2023-06-05T02:41:14;1.40;;;0.50;;
15120;SDS011;7661;48.904;9.414;2023-06-05T02:43:42;1.40;;;0.50;;
15120;SDS011;7661;48.904;9.414;2023-06-05T02:46:09;1.40;;;0.50;;
15120;SDS011;7661;48.904;9.414;2023-06-05T02:48:37;1.40;;;0.50;;
15120;SDS011;7661;48.904;9.414;2023-06-05T02:51:04;1.40;;;0.60;;
15120;SDS011;7661;48.904;9.414;2023-06-05T02:53:32;1.40;;;0.60;;
15120;SDS011;7661;48.904;9.414;2023-06-05T02:55:59;1.40;;;0.50;;
15120;SDS011;7661;48.904;9.414;2023-06-05T02:58:27;1.40;;;0.50;;
15120;SDS011;7661;48.904;9.414;2023-06-05T03:00:54;1.40;;;0.60;;
15120;SDS011;7661;48.904;9.414;2023-06-05T03:03:27;1.40;;;0.57;;
15120;SDS011;7661;48.904;9.414;2023-06-05T03:05:56;1.40;;;0.60;;
15120;SDS011;7661;48.904;9.414;2023-06-05T03:08:29;1.40;;;0.60;;
15120;SDS011;7661;48.904;9.414;2023-06-05T03:10:56;1.40;;;0.50;;
15120;SDS011;7661;48.904;9.414;2023-06-05T03:13:23;1.40;;;0.60;;
15120;SDS011;7661;48.904;9.414;2023-06-05T03:15:50;1.40;;;0.50;;
15120;SDS011;7661;48.904;9.414;2023-06-05T03:18:18;1.40;;;0.50;;
15120;SDS011;7661;48.904;9.414;2023-06-05T03:20:46;1.40;;;0.50;;
15120;SDS011;7661;48.904;9.414;2023-06-05T03:23:16;1.40;;;0.50;;
15120;SDS011;7661;48.904;9.414;2023-06-05T03:25:43;1.33;;;0.50;;
15120;SDS011;7661;48.904;9.414;2023-06-05T03:28:10;1.33;;;0.50;;
15120;SDS011;7661;48.904;9.414;2023-06-05T03:30:37;1.33;;;0.50;;
15120;SDS011;7661;48.904;9.414;2023-06-05T03:33:04;1.40;;;0.50;;
15120;SDS011;7661;48.904;9.414;2023-06-05T03:35:32;1.40;;;0.57;;
15120;SDS011;7661;48.904;9.414;2023-06-05T03:38:00;1.40;;;0.50;;
15120;SDS011;7661;48.904;9.414;2023-06-05T03:40:28;1.40;;;0.50;;
15120;SDS011;7661;48.904;9.414;2023-06-05T03:42:55;1.40;;;0.50;;
15120;SDS011;7661;48.904;9.414;2023-06-05T03:45:22;1.40;;;0.50;;
15120;SDS011;7661;48.904;9.414;2023-06-05T03:47:51;1.37;;;0.50;;
15120;SDS011;7661;48.904;9.414;2023-06-05T03:50:19;1.40;;;0.50;;
15120;SDS011;7661;48.904;9.414;2023-06-05T03:52:49;1.40;;;0.50;;
15120;SDS011;7661;48.904;9.414;2023-06-05T03:55:18;1.33;;;0.50;;
15120;SDS011;7661;48.904;9.414;2023-06-05T03:57:46;1.30;;;0.50;;
15120;SDS011;7661;48.904;9.414;2023-06-05T04:00:13;1.40;;;0.60;;
15120;SDS011;7661;48.904;9.414;2023-06-05T04:02:42;1.40;;;0.50;;
15120;SDS011;7661;48.904;9.414;2023-06-05T04:05:09;1.40;;;0.50;;
15120;SDS011;7661;48.904;9.414;2023-06-05T04:07:37;1.30;;;0.50;;
15120;SDS011;7661;48.904;9.414;2023-06-05T04:10:05;1.40;;;0.60;;
15120;SDS011;7661;48.904;9.414;2023-06-05T04:12:32;1.30;;;0.50;;
15120;SDS011;7661;48.904;9.414;2023-06-05T04:15:01;1.40;;;0.50;;
15120;SDS011;7661;48.904;9.414;2023-06-05T04:17:28;1.40;;;0.50;;
15120;SDS011;7661;48.904;9.414;2023-06-05T04:19:55;1.37;;;0.60;;
15120;SDS011;7661;48.904;9.414;2023-06-05T04:22:22;1.40;;;0.50;;
15120;SDS011;7661;48.904;9.414;2023-06-05T04:24:49;1.37;;;0.50;;
15120;SDS011;7661;48.904;9.414;2023-06-05T04:27:15;1.40;;;0.57;;
15120;SDS011;7661;48.904;9.414;2023-06-05T04:29:43;1.40;;;0.50;;
15120;SDS011;7661;48.904;9.414;2023-06-05T04:32:13;1.40;;;0.60;;
15120;SDS011;7661;48.904;9.414;2023-06-05T04:34:41;1.40;;;0.50;;
15120;SDS011;7661;48.904;9.414;2023-06-05T04:37:08;1.30;;;0.50;;
15120;SDS011;7661;48.904;9.414;2023-06-05T04:39:35;1.30;;;0.60;;
15120;SDS011;7661;48.904;9.414;2023-06-05T04:42:02;1.40;;;0.57;;
15120;SDS011;7661;48.904;9.414;2023-06-05T04:44:29;1.40;;;0.60;;
15120;SDS011;7661;48.904;9.414;2023-06-05T04:46:56;1.40;;;0.60;;
15120;SDS011;7661;48.904;9.414;2023-06-05T04:49:24;1.40;;;0.60;;
15120;SDS011;7661;48.904;9.414;2023-06-05T04:51:51;1.40;;;0.60;;
15120;SDS011;7661;48.904;9.414;2023-06-05T04:54:22;1.40;;;0.50;;
15120;SDS011;7661;48.904;9.414;2023-06-05T04:56:48;1.40;;;0.60;;
15120;SDS011;7661;48.904;9.414;2023-06-05T04:59:15;1.40;;;0.50;;
15120;SDS011;7661;48.904;9.414;2023-06-05T05:01:43;1.40;;;0.53;;
15120;SDS011;7661;48.904;9.414;2023-06-05T05:04:10;1.40;;;0.60;;
15120;SDS011;7661;48.904;9.414;2023-06-05T05:06:39;1.40;;;0.60;;
15120;SDS011;7661;48.904;9.414;2023-06-05T05:09:12;1.40;;;0.50;;
15120;SDS011;7661;48.904;9.414;2023-06-05T05:11:39;1.40;;;0.53;;
15120;SDS011;7661;48.904;9.414;2023-06-05T05:14:06;1.40;;;0.60;;
15120;SDS011;7661;48.904;9.414;2023-06-05T05:16:33;1.40;;;0.50;;
15120;SDS011;7661;48.904;9.414;2023-06-05T05:19:00;1.40;;;0.60;;
15120;SDS011;7661;48.904;9.414;2023-06-05T05:21:27;1.30;;;0.50;;
15120;SDS011;7661;48.904;9.414;2023-06-05T05:23:55;1.40;;;0.60;;
15120;SDS011;7661;48.904;9.414;2023-06-05T05:26:22;1.40;;;0.50;;
15120;SDS011;7661;48.904;9.414;2023-06-05T05:28:49;1.37;;;0.50;;
15120;SDS011;7661;48.904;9.414;2023-06-05T05:31:16;1.37;;;0.60;;
15120;SDS011;7661;48.904;9.414;2023-06-05T05:33:42;1.30;;;0.60;;
15120;SDS011;7661;48.904;9.414;2023-06-05T05:36:09;1.40;;;0.60;;
15120;SDS011;7661;48.904;9.414;2023-06-05T05:38:36;1.33;;;0.50;;
15120;SDS011;7661;48.904;9.414;2023-06-05T05:41:05;1.40;;;0.50;;
15120;SDS011;7661;48.904;9.414;2023-06-05T05:43:31;1.40;;;0.60;;
15120;SDS011;7661;48.904;9.414;2023-06-05T05:45:58;1.40;;;0.60;;
15120;SDS011;7661;48.904;9.414;2023-06-05T05:48:25;1.40;;;0.50;;
15120;SDS011;7661;48.904;9.414;2023-06-05T05:50:52;1.30;;;0.50;;
15120;SDS011;7661;48.904;9.414;2023-06-05T05:53:19;1.37;;;0.50;;
15120;SDS011;7661;48.904;9.414;2023-06-05T05:55:46;1.30;;;0.50;;
15120;SDS011;7661;48.904;9.414;2023-06-05T05:58:14;1.30;;;0.50;;
15120;SDS011;7661;48.904;9.414;2023-06-05T06:00:41;1.30;;;0.50;;
15120;SDS011;7661;48.904;9.414;2023-06-05T06:03:09;1.33;;;0.60;;
15120;SDS011;7661;48.904;9.414;2023-06-05T06:05:36;1.30;;;0.50;;
15120;SDS011;7661;48.904;9.414;2023-06-05T06:08:03;1.40;;;0.50;;
15120;SDS011;7661;48.904;9.414;2023-06-05T06:10:31;1.30;;;0.50;;
15120;SDS011;7661;48.904;9.414;2023-06-05T06:12:58;1.40;;;0.50;;
15120;SDS011;7661;48.904;9.414;2023-06-05T06:15:27;1.30;;;0.50;;
15120;SDS011;7661;48.904;9.414;2023-06-05T06:17:54;1.30;;;0.60;;
15120;SDS011;7661;48.904;9.414;2023-06-05T06:20:21;1.33;;;0.60;;
15120;SDS011;7661;48.904;9.414;2023-06-05T06:22:48;1.30;;;0.50;;
15120;SDS011;7661;48.904;9.414;2023-06-05T06:25:16;1.40;;;0.50;;
15120;SDS011;7661;48.904;9.414;2023-06-05T06:27:46;1.37;;;0.50;;
15120;SDS011;7661;48.904;9.414;2023-06-05T06:30:13;1.40;;;0.60;;
15120;SDS011;7661;48.904;9.414;2023-06-05T06:32:42;1.33;;;0.50;;
15120;SDS011;7661;48.904;9.414;2023-06-05T06:35:09;1.37;;;0.50;;
15120;SDS011;7661;48.904;9.414;2023-06-05T06:37:38;1.40;;;0.60;;
15120;SDS011;7661;48.904;9.414;2023-06-05T06:40:06;1.37;;;0.50;;
15120;SDS011;7661;48.904;9.414;2023-06-05T06:42:36;1.30;;;0.60;;
15120;SDS011;7661;48.904;9.414;2023-06-05T06:45:04;1.37;;;0.50;;
15120;SDS011;7661;48.904;9.414;2023-06-05T06:47:31;1.40;;;0.60;;
15120;SDS011;7661;48.904;9.414;2023-06-05T06:49:59;1.33;;;0.50;;
15120;SDS011;7661;48.904;9.414;2023-06-05T06:52:26;1.40;;;0.60;;
15120;SDS011;7661;48.904;9.414;2023-06-05T06:54:53;1.40;;;0.50;;
15120;SDS011;7661;48.904;9.414;2023-06-05T06:57:20;1.40;;;0.50;;
15120;SDS011;7661;48.904;9.414;2023-06-05T06:59:47;1.30;;;0.60;;
15120;SDS011;7661;48.904;9.414;2023-06-05T07:02:15;1.37;;;0.50;;
15120;SDS011;7661;48.904;9.414;2023-06-05T07:04:43;1.40;;;0.50;;
15120;SDS011;7661;48.904;9.414;2023-06-05T07:07:12;1.30;;;0.50;;
15120;SDS011;7661;48.904;9.414;2023-06-05T07:09:39;1.40;;;0.60;;
15120;SDS011;7661;48.904;9.414;2023-06-05T07:12:07;1.30;;;0.50;;
15120;SDS011;7661;48.904;9.414;2023-06-05T07:14:35;1.30;;;0.53;;
15120;SDS011;7661;48.904;9.414;2023-06-05T07:17:02;1.37;;;0.50;;
15120;SDS011;7661;48.904;9.414;2023-06-05T07:19:30;1.40;;;0.50;;
15120;SDS011;7661;48.904;9.414;2023-06-05T07:21:58;1.40;;;0.60;;
15120;SDS011;7661;48.904;9.414;2023-06-05T07:24:27;1.30;;;0.50;;
15120;SDS011;7661;48.904;9.414;2023-06-05T07:26:55;1.40;;;0.60;;
15120;SDS011;7661;48.904;9.414;2023-06-05T07:29:23;1.40;;;0.50;;
15120;SDS011;7661;48.904;9.414;2023-06-05T07:31:50;1.40;;;0.50;;
15120;SDS011;7661;48.904;9.414;2023-06-05T07:34:17;1.30;;;0.50;;
15120;SDS011;7661;48.904;9.414;2023-06-05T07:36:45;1.30;;;0.50;;
15120;SDS011;7661;48.904;9.414;2023-06-05T07:39:13;1.30;;;0.50;;
15120;SDS011;7661;48.904;9.414;2023-06-05T07:41:42;1.30;;;0.50;;
15120;SDS011;7661;48.904;9.414;2023-06-05T07:44:09;1.30;;;0.50;;
15120;SDS011;7661;48.904;9.414;2023-06-05T07:46:37;1.30;;;0.50;;
15120;SDS011;7661;48.904;9.414;2023-06-05T07:49:05;1.30;;;0.50;;
15120;SDS011;7661;48.904;9.414;2023-06-05T07:51:34;1.40;;;0.50;;
15120;SDS011;7661;48.904;9.414;2023-06-05T07:54:02;1.30;;;0.60;;
15120;SDS011;7661;48.904;9.414;2023-06-05T07:56:29;1.40;;;0.50;;
15120;SDS011;7661;48.904;9.414;2023-06-05T07:58:59;1.37;;;0.50;;
15120;SDS011;7661;48.904;9.414;2023-06-05T08:01:28;1.40;;;0.50;;
15120;SDS011;7661;48.904;9.414;2023-06-05T08:03:55;1.30;;;0.50;;
15120;SDS011;7661;48.904;9.414;2023-06-05T08:06:22;1.30;;;0.50;;
15120;SDS011;7661;48.904;9.414;2023-06-05T08:08:50;1.37;;;0.50;;
15120;SDS011;7661;48.904;9.414;2023-06-05T08:11:17;1.30;;;0.50;;
15120;SDS011;7661;48.904;9.414;2023-06-05T08:13:44;1.30;;;0.50;;
15120;SDS011;7661;48.904;9.414;2023-06-05T08:16:13;1.37;;;0.50;;
15120;SDS011;7661;48.904;9.414;2023-06-05T08:18:40;1.30;;;0.50;;
15120;SDS011;7661;48.904;9.414;2023-06-05T08:21:08;1.40;;;0.60;;
15120;SDS011;7661;48.904;9.414;2023-06-05T08:23:36;1.30;;;0.50;;
15120;SDS011;7661;48.904;9.414;2023-06-05T08:26:03;1.30;;;0.50;;
15120;SDS011;7661;48.904;9.414;2023-06-05T08:28:36;1.30;;;0.50;;
15120;SDS011;7661;48.904;9.414;2023-06-05T08:31:04;1.30;;;0.50;;
15120;SDS011;7661;48.904;9.414;2023-06-05T08:33:33;1.30;;;0.50;;
15120;SDS011;7661;48.904;9.414;2023-06-05T08:36:00;1.33;;;0.50;;
15120;SDS011;7661;48.904;9.414;2023-06-05T08:38:28;1.30;;;0.50;;
15120;SDS011;7661;48.904;9.414;2023-06-05T08:40:55;1.30;;;0.50;;
15120;SDS011;7661;48.904;9.414;2023-06-05T08:43:26;1.30;;;0.50;;
15120;SDS011;7661;48.904;9.414;2023-06-05T08:45:53;1.20;;;0.50;;
15120;SDS011;7661;48.904;9.414;2023-06-05T08:48:21;1.30;;;0.50;;
15120;SDS011;7661;48.904;9.414;2023-06-05T08:50:51;1.27;;;0.50;;
15120;SDS011;7661;48.904;9.414;2023-06-05T08:53:20;1.20;;;0.50;;
15120;SDS011;7661;48.904;9.414;2023-06-05T08:55:51;1.20;;;0.50;;
15120;SDS011;7661;48.904;9.414;2023-06-05T08:58:21;1.20;;;0.50;;
15120;SDS011;7661;48.904;9.414;2023-06-05T09:00:48;1.20;;;0.50;;
15120;SDS011;7661;48.904;9.414;2023-06-05T09:03:16;1.20;;;0.50;;
15120;SDS011;7661;48.904;9.414;2023-06-05T09:05:45;1.20;;;0.50;;
15120;SDS011;7661;48.904;9.414;2023-06-05T09:08:13;1.20;;;0.50;;
15120;SDS011;7661;48.904;9.414;2023-06-05T09:10:42;1.20;;;0.50;;
15120;SDS011;7661;48.904;9.414;2023-06-05T09:13:09;1.20;;;0.50;;
15120;SDS011;7661;48.904;9.414;2023-06-05T09:15:36;1.20;;;0.50;;
15120;SDS011;7661;48.904;9.414;2023-06-05T09:18:06;1.20;;;0.50;;
15120;SDS011;7661;48.904;9.414;2023-06-05T09:20:36;1.20;;;0.50;;
15120;SDS011;7661;48.904;9.414;2023-06-05T09:23:04;1.20;;;0.50;;
15120;SDS011;7661;48.904;9.414;2023-06-05T09:25:59;1.20;;;0.50;;
15120;SDS011;7661;48.904;9.414;2023-06-05T09:28:28;1.20;;;0.50;;
15120;SDS011;7661;48.904;9.414;2023-06-05T09:30:56;1.20;;;0.50;;
15120;SDS011;7661;48.904;9.414;2023-06-05T09:33:24;1.20;;;0.50;;
15120;SDS011;7661;48.904;9.414;2023-06-05T09:36:01;1.17;;;0.50;;
15120;SDS011;7661;48.904;9.414;2023-06-05T09:38:29;1.20;;;0.50;;
15120;SDS011;7661;48.904;9.414;2023-06-05T09:41:04;1.20;;;0.50;;
15120;SDS011;7661;48.904;9.414;2023-06-05T09:43:32;1.20;;;0.50;;
15120;SDS011;7661;48.904;9.414;2023-06-05T09:46:01;1.20;;;0.50;;
15120;SDS011;7661;48.904;9.414;2023-06-05T09:48:32;1.20;;;0.50;;
15120;SDS011;7661;48.904;9.414;2023-06-05T09:51:07;1.20;;;0.50;;
15120;SDS011;7661;48.904;9.414;2023-06-05T09:53:37;1.20;;;0.50;;
15120;SDS011;7661;48.904;9.414;2023-06-05T09:56:11;1.13;;;0.50;;
15120;SDS011;7661;48.904;9.414;2023-06-05T09:58:39;1.20;;;0.50;;
15120;SDS011;7661;48.904;9.414;2023-06-05T10:01:09;1.20;;;0.50;;
15120;SDS011;7661;48.904;9.414;2023-06-05T10:03:38;1.20;;;0.50;;
15120;SDS011;7661;48.904;9.414;2023-06-05T10:06:08;1.13;;;0.50;;
15120;SDS011;7661;48.904;9.414;2023-06-05T10:08:35;1.10;;;0.50;;
15120;SDS011;7661;48.904;9.414;2023-06-05T10:11:03;1.10;;;0.50;;
15120;SDS011;7661;48.904;9.414;2023-06-05T10:13:32;1.10;;;0.50;;
15120;SDS011;7661;48.904;9.414;2023-06-05T10:16:00;1.10;;;0.50;;
15120;SDS011;7661;48.904;9.414;2023-06-05T10:18:27;1.10;;;0.50;;
15120;SDS011;7661;48.904;9.414;2023-06-05T10:20:54;1.10;;;0.50;;
15120;SDS011;7661;48.904;9.414;2023-06-05T10:23:23;1.10;;;0.50;;
15120;SDS011;7661;48.904;9.414;2023-06-05T10:25:52;1.10;;;0.50;;
15120;SDS011;7661;48.904;9.414;2023-06-05T10:28:29;1.10;;;0.50;;
15120;SDS011;7661;48.904;9.414;2023-06-05T10:31:12;1.10;;;0.50;;
15120;SDS011;7661;48.904;9.414;2023-06-05T10:33:58;1.10;;;0.50;;
15120;SDS011;7661;48.904;9.414;2023-06-05T10:36:37;1.10;;;0.50;;
15120;SDS011;7661;48.904;9.414;2023-06-05T10:39:13;1.10;;;0.50;;
15120;SDS011;7661;48.904;9.414;2023-06-05T10:41:42;1.10;;;0.50;;
15120;SDS011;7661;48.904;9.414;2023-06-05T10:44:10;1.10;;;0.50;;
15120;SDS011;7661;48.904;9.414;2023-06-05T10:46:39;1.10;;;0.50;;
15120;SDS011;7661;48.904;9.414;2023-06-05T10:49:10;1.10;;;0.50;;
15120;SDS011;7661;48.904;9.414;2023-06-05T10:51:40;1.00;;;0.50;;
15120;SDS011;7661;48.904;9.414;2023-06-05T10:54:09;1.00;;;0.50;;
15120;SDS011;7661;48.904;9.414;2023-06-05T10:56:55;1.10;;;0.47;;
15120;SDS011;7661;48.904;9.414;2023-06-05T10:59:25;1.10;;;0.50;;
15120;SDS011;7661;48.904;9.414;2023-06-05T11:07:38;1.10;;;0.50;;
15120;SDS011;7661;48.904;9.414;2023-06-05T11:10:06;1.10;;;0.50;;
15120;SDS011;7661;48.904;9.414;2023-06-05T11:12:54;1.00;;;0.50;;
15120;SDS011;7661;48.904;9.414;2023-06-05T11:15:39;1.10;;;0.47;;
15120;SDS011;7661;48.904;9.414;2023-06-05T11:18:27;1.00;;;0.50;;
15120;SDS011;7661;48.904;9.414;2023-06-05T11:20:58;1.03;;;0.50;;
15120;SDS011;7661;48.904;9.414;2023-06-05T11:23:26;1.00;;;0.50;;
15120;SDS011;7661;48.904;9.414;2023-06-05T11:25:54;0.90;;;0.50;;
15120;SDS011;7661;48.904;9.414;2023-06-05T11:28:37;1.00;;;0.50;;
15120;SDS011;7661;48.904;9.414;2023-06-05T11:31:06;0.90;;;0.50;;
15120;SDS011;7661;48.904;9.414;2023-06-05T11:33:33;0.90;;;0.50;;
15120;SDS011;7661;48.904;9.414;2023-06-05T11:36:00;0.90;;;0.40;;
15120;SDS011;7661;48.904;9.414;2023-06-05T11:38:28;0.90;;;0.50;;
15120;SDS011;7661;48.904;9.414;2023-06-05T11:40:55;0.90;;;0.50;;
15120;SDS011;7661;48.904;9.414;2023-06-05T11:43:22;0.90;;;0.40;;
15120;SDS011;7661;48.904;9.414;2023-06-05T11:45:50;0.90;;;0.40;;
15120;SDS011;7661;48.904;9.414;2023-06-05T11:48:19;0.90;;;0.50;;
15120;SDS011;7661;48.904;9.414;2023-06-05T11:50:55;0.90;;;0.50;;
15120;SDS011;7661;48.904;9.414;2023-06-05T11:53:23;0.90;;;0.50;;
15120;SDS011;7661;48.904;9.414;2023-06-05T11:55:50;0.90;;;0.50;;
15120;SDS011;7661;48.904;9.414;2023-06-05T11:58:31;0.80;;;0.50;;
15120;SDS011;7661;48.904;9.414;2023-06-05T12:01:04;0.80;;;0.40;;
15120;SDS011;7661;48.904;9.414;2023-06-05T12:03:34;0.90;;;0.50;;
15120;SDS011;7661;48.904;9.414;2023-06-05T12:06:02;0.87;;;0.43;;
15120;SDS011;7661;48.904;9.414;2023-06-05T12:08:30;0.80;;;0.40;;
15120;SDS011;7661;48.904;9.414;2023-06-05T12:10:58;0.80;;;0.43;;
15120;SDS011;7661;48.904;9.414;2023-06-05T12:13:44;0.80;;;0.50;;
15120;SDS011;7661;48.904;9.414;2023-06-05T12:16:11;0.80;;;0.50;;
15120;SDS011;7661;48.904;9.414;2023-06-05T12:18:40;0.80;;;0.40;;
15120;SDS011;7661;48.904;9.414;2023-06-05T12:21:13;0.80;;;0.50;;
15120;SDS011;7661;48.904;9.414;2023-06-05T12:23:45;0.80;;;0.50;;
15120;SDS011;7661;48.904;9.414;2023-06-05T12:26:12;0.80;;;0.40;;
15120;SDS011;7661;48.904;9.414;2023-06-05T12:28:40;0.80;;;0.40;;
15120;SDS011;7661;48.904;9.414;2023-06-05T12:31:08;0.80;;;0.40;;
15120;SDS011;7661;48.904;9.414;2023-06-05T12:33:46;0.80;;;0.40;;
15120;SDS011;7661;48.904;9.414;2023-06-05T12:36:14;0.80;;;0.40;;
15120;SDS011;7661;48.904;9.414;2023-06-05T12:38:41;0.80;;;0.47;;
15120;SDS011;7661;48.904;9.414;2023-06-05T12:41:09;0.80;;;0.43;;
15120;SDS011;7661;48.904;9.414;2023-06-05T12:43:36;0.80;;;0.40;;
15120;SDS011;7661;48.904;9.414;2023-06-05T12:46:04;0.80;;;0.40;;
15120;SDS011;7661;48.904;9.414;2023-06-05T12:48:32;0.80;;;0.40;;
15120;SDS011;7661;48.904;9.414;2023-06-05T12:51:01;0.80;;;0.40;;
15120;SDS011;7661;48.904;9.414;2023-06-05T12:53:28;0.80;;;0.40;;
15120;SDS011;7661;48.904;9.414;2023-06-05T12:55:55;0.80;;;0.40;;
15120;SDS011;7661;48.904;9.414;2023-06-05T12:58:22;0.80;;;0.40;;
15120;SDS011;7661;48.904;9.414;2023-06-05T13:00:49;0.80;;;0.40;;
15120;SDS011;7661;48.904;9.414;2023-06-05T13:03:17;0.80;;;0.40;;
15120;SDS011;7661;48.904;9.414;2023-06-05T13:05:44;0.80;;;0.40;;
15120;SDS011;7661;48.904;9.414;2023-06-05T13:08:12;0.80;;;0.40;;
15120;SDS011;7661;48.904;9.414;2023-06-05T13:10:39;0.80;;;0.40;;
15120;SDS011;7661;48.904;9.414;2023-06-05T13:13:06;0.80;;;0.40;;
15120;SDS011;7661;48.904;9.414;2023-06-05T13:15:33;0.80;;;0.40;;
15120;SDS011;7661;48.904;9.414;2023-06-05T13:17:59;0.80;;;0.40;;
15120;SDS011;7661;48.904;9.414;2023-06-05T13:20:26;0.80;;;0.40;;
15120;SDS011;7661;48.904;9.414;2023-06-05T13:22:53;0.80;;;0.40;;
15120;SDS011;7661;48.904;9.414;2023-06-05T13:25:21;0.80;;;0.40;;
15120;SDS011;7661;48.904;9.414;2023-06-05T13:27:48;0.80;;;0.40;;
15120;SDS011;7661;48.904;9.414;2023-06-05T13:30:15;0.80;;;0.40;;
15120;SDS011;7661;48.904;9.414;2023-06-05T13:32:42;0.80;;;0.40;;
15120;SDS011;7661;48.904;9.414;2023-06-05T13:35:09;0.80;;;0.40;;
15120;SDS011;7661;48.904;9.414;2023-06-05T13:37:36;0.80;;;0.40;;
15120;SDS011;7661;48.904;9.414;2023-06-05T13:40:04;0.80;;;0.40;;
15120;SDS011;7661;48.904;9.414;2023-06-05T13:42:36;0.80;;;0.40;;
15120;SDS011;7661;48.904;9.414;2023-06-05T13:45:03;0.80;;;0.40;;
15120;SDS011;7661;48.904;9.414;2023-06-05T13:47:31;0.80;;;0.40;;
15120;SDS011;7661;48.904;9.414;2023-06-05T13:49:58;0.80;;;0.40;;
15120;SDS011;7661;48.904;9.414;2023-06-05T13:52:25;0.80;;;0.40;;
15120;SDS011;7661;48.904;9.414;2023-06-05T13:54:52;0.80;;;0.40;;
15120;SDS011;7661;48.904;9.414;2023-06-05T13:57:18;0.80;;;0.40;;
15120;SDS011;7661;48.904;9.414;2023-06-05T13:59:47;0.80;;;0.40;;
15120;SDS011;7661;48.904;9.414;2023-06-05T14:02:14;0.80;;;0.40;;
15120;SDS011;7661;48.904;9.414;2023-06-05T14:04:41;0.80;;;0.40;;
15120;SDS011;7661;48.904;9.414;2023-06-05T14:07:07;0.80;;;0.40;;
15120;SDS011;7661;48.904;9.414;2023-06-05T14:09:35;0.80;;;0.40;;
15120;SDS011;7661;48.904;9.414;2023-06-05T14:12:02;0.80;;;0.40;;
15120;SDS011;7661;48.904;9.414;2023-06-05T14:14:30;0.80;;;0.40;;
15120;SDS011;7661;48.904;9.414;2023-06-05T14:16:58;0.80;;;0.40;;
15120;SDS011;7661;48.904;9.414;2023-06-05T14:19:25;0.80;;;0.40;;
15120;SDS011;7661;48.904;9.414;2023-06-05T14:21:52;0.80;;;0.40;;
15120;SDS011;7661;48.904;9.414;2023-06-05T14:24:19;0.73;;;0.40;;
15120;SDS011;7661;48.904;9.414;2023-06-05T14:26:46;0.80;;;0.40;;
15120;SDS011;7661;48.904;9.414;2023-06-05T14:29:13;0.80;;;0.40;;
15120;SDS011;7661;48.904;9.414;2023-06-05T14:31:40;0.80;;;0.40;;
15120;SDS011;7661;48.904;9.414;2023-06-05T14:34:08;0.80;;;0.40;;
15120;SDS011;7661;48.904;9.414;2023-06-05T14:36:35;0.80;;;0.40;;
15120;SDS011;7661;48.904;9.414;2023-06-05T14:39:02;0.80;;;0.40;;
15120;SDS011;7661;48.904;9.414;2023-06-05T14:41:29;0.80;;;0.40;;
15120;SDS011;7661;48.904;9.414;2023-06-05T14:43:56;0.80;;;0.40;;
15120;SDS011;7661;48.904;9.414;2023-06-05T14:46:23;0.80;;;0.40;;
15120;SDS011;7661;48.904;9.414;2023-06-05T14:48:50;0.80;;;0.40;;
15120;SDS011;7661;48.904;9.414;2023-06-05T14:51:18;0.80;;;0.40;;
15120;SDS011;7661;48.904;9.414;2023-06-05T14:53:45;0.80;;;0.40;;
15120;SDS011;7661;48.904;9.414;2023-06-05T14:56:12;0.80;;;0.40;;
15120;SDS011;7661;48.904;9.414;2023-06-05T14:58:39;0.80;;;0.40;;
15120;SDS011;7661;48.904;9.414;2023-06-05T15:01:06;0.80;;;0.40;;
15120;SDS011;7661;48.904;9.414;2023-06-05T15:03:33;0.80;;;0.50;;
15120;SDS011;7661;48.904;9.414;2023-06-05T15:06:00;0.80;;;0.40;;
15120;SDS011;7661;48.904;9.414;2023-06-05T15:08:28;0.80;;;0.40;;
15120;SDS011;7661;48.904;9.414;2023-06-05T15:10:55;0.80;;;0.40;;
15120;SDS011;7661;48.904;9.414;2023-06-05T15:13:22;0.80;;;0.40;;